sensor_id;sensor_type;location;lat;lon;timestamp;P1;durP1;ratioP1;P2;durP2;ratioP2
7497;SDS011;3790;48.806;9.140;2023-05-21T00:00:48;10.45;;;8.25;;
7497;SDS011;3790;48.806;9.140;2023-05-21T00:05:50;11.38;;;8.48;;
7497;SDS011;3790;48.806;9.140;2023-05-21T00:10:50;11.52;;;7.97;;
7497;SDS011;3790;48.806;9.140;2023-05-21T00:15:51;10.32;;;7.88;;
7497;SDS011;3790;48.806;9.140;2023-05-21T00:20:51;9.07;;;8.18;;
7497;SDS011;3790;48.806;9.140;2023-05-21T00:25:53;9.68;;;8.07;;
7497;SDS011;3790;48.806;9.140;2023-05-21T00:30:53;10.98;;;8.82;;
7497;SDS011;3790;48.806;9.140;2023-05-21T00:35:54;13.15;;;8.95;;
7497;SDS011;3790;48.806;9.140;2023-05-21T00:40:55;10.18;;;8.65;;
7497;SDS011;3790;48.806;9.140;2023-05-21T00:45:56;11.75;;;8.20;;
7497;SDS011;3790;48.806;9.140;2023-05-21T00:50:58;11.02;;;8.88;;
7497;SDS011;3790;48.806;9.140;2023-05-21T00:55:58;11.05;;;8.95;;
7497;SDS011;3790;48.806;9.140;2023-05-21T01:00:59;11.82;;;9.90;;
7497;SDS011;3790;48.806;9.140;2023-05-21T01:06:06;14.05;;;10.05;;
7497;SDS011;3790;48.806;9.140;2023-05-21T01:11:08;11.27;;;8.88;;
7497;SDS011;3790;48.806;9.140;2023-05-21T01:16:09;12.98;;;9.80;;
7497;SDS011;3790;48.806;9.140;2023-05-21T01:21:12;13.32;;;10.63;;
7497;SDS011;3790;48.806;9.140;2023-05-21T01:26:16;10.82;;;9.73;;
7497;SDS011;3790;48.806;9.140;2023-05-21T01:32:01;12.23;;;9.55;;
7497;SDS011;3790;48.806;9.140;2023-05-21T01:37:06;10.68;;;8.63;;
7497;SDS011;3790;48.806;9.140;2023-05-21T01:42:11;9.57;;;8.55;;
7497;SDS011;3790;48.806;9.140;2023-05-21T01:47:14;12.95;;;8.85;;
7497;SDS011;3790;48.806;9.140;2023-05-21T01:52:17;12.25;;;9.23;;
7497;SDS011;3790;48.806;9.140;2023-05-21T01:57:17;11.98;;;9.90;;
7497;SDS011;3790;48.806;9.140;2023-05-21T02:02:18;12.80;;;9.63;;
7497;SDS011;3790;48.806;9.140;2023-05-21T02:07:19;11.23;;;10.00;;
7497;SDS011;3790;48.806;9.140;2023-05-21T02:12:19;15.02;;;10.13;;
7497;SDS011;3790;48.806;9.140;2023-05-21T02:17:20;12.60;;;9.00;;
7497;SDS011;3790;48.806;9.140;2023-05-21T02:22:21;13.65;;;10.30;;
7497;SDS011;3790;48.806;9.140;2023-05-21T02:27:21;13.88;;;10.25;;
7497;SDS011;3790;48.806;9.140;2023-05-21T02:32:22;13.65;;;10.82;;
7497;SDS011;3790;48.806;9.140;2023-05-21T02:37:24;11.35;;;9.18;;
7497;SDS011;3790;48.806;9.140;2023-05-21T02:42:26;11.65;;;9.40;;
7497;SDS011;3790;48.806;9.140;2023-05-21T02:47:27;12.93;;;10.38;;
7497;SDS011;3790;48.806;9.140;2023-05-21T02:52:27;11.60;;;10.43;;
7497;SDS011;3790;48.806;9.140;2023-05-21T02:57:28;12.85;;;10.32;;
7497;SDS011;3790;48.806;9.140;2023-05-21T03:02:28;14.90;;;11.23;;
7497;SDS011;3790;48.806;9.140;2023-05-21T03:07:29;12.13;;;9.82;;
7497;SDS011;3790;48.806;9.140;2023-05-21T03:12:30;11.77;;;10.55;;
7497;SDS011;3790;48.806;9.140;2023-05-21T03:17:31;15.20;;;10.82;;
7497;SDS011;3790;48.806;9.140;2023-05-21T03:22:31;12.73;;;9.95;;
7497;SDS011;3790;48.806;9.140;2023-05-21T03:27:32;12.75;;;9.88;;
7497;SDS011;3790;48.806;9.140;2023-05-21T03:32:32;13.40;;;11.10;;
7497;SDS011;3790;48.806;9.140;2023-05-21T03:37:36;11.85;;;10.68;;
7497;SDS011;3790;48.806;9.140;2023-05-21T03:42:37;13.15;;;11.60;;
7497;SDS011;3790;48.806;9.140;2023-05-21T03:47:37;12.88;;;10.02;;
7497;SDS011;3790;48.806;9.140;2023-05-21T03:52:38;13.23;;;11.00;;
7497;SDS011;3790;48.806;9.140;2023-05-21T03:57:38;13.68;;;11.05;;
7497;SDS011;3790;48.806;9.140;2023-05-21T04:02:40;12.63;;;11.32;;
7497;SDS011;3790;48.806;9.140;2023-05-21T04:07:40;14.95;;;11.48;;
7497;SDS011;3790;48.806;9.140;2023-05-21T04:12:41;13.77;;;10.95;;
7497;SDS011;3790;48.806;9.140;2023-05-21T04:17:42;14.05;;;11.27;;
7497;SDS011;3790;48.806;9.140;2023-05-21T04:22:44;13.27;;;11.18;;
7497;SDS011;3790;48.806;9.140;2023-05-21T04:27:44;12.35;;;11.05;;
7497;SDS011;3790;48.806;9.140;2023-05-21T04:32:46;13.48;;;11.32;;
7497;SDS011;3790;48.806;9.140;2023-05-21T04:37:47;28.25;;;12.65;;
7497;SDS011;3790;48.806;9.140;2023-05-21T04:42:47;13.25;;;10.20;;
7497;SDS011;3790;48.806;9.140;2023-05-21T04:47:49;19.67;;;12.25;;
7497;SDS011;3790;48.806;9.140;2023-05-21T04:52:50;14.48;;;10.73;;
7497;SDS011;3790;48.806;9.140;2023-05-21T04:57:53;16.13;;;11.38;;
7497;SDS011;3790;48.806;9.140;2023-05-21T05:02:54;14.88;;;11.40;;
7497;SDS011;3790;48.806;9.140;2023-05-21T05:07:55;11.48;;;10.10;;
7497;SDS011;3790;48.806;9.140;2023-05-21T05:12:57;12.65;;;10.85;;
7497;SDS011;3790;48.806;9.140;2023-05-21T05:17:57;11.82;;;9.80;;
7497;SDS011;3790;48.806;9.140;2023-05-21T05:22:58;11.98;;;10.65;;
7497;SDS011;3790;48.806;9.140;2023-05-21T05:27:58;14.38;;;11.38;;
7497;SDS011;3790;48.806;9.140;2023-05-21T05:32:59;12.18;;;10.57;;
7497;SDS011;3790;48.806;9.140;2023-05-21T05:37:59;11.93;;;9.90;;
7497;SDS011;3790;48.806;9.140;2023-05-21T05:43:00;13.95;;;11.82;;
7497;SDS011;3790;48.806;9.140;2023-05-21T05:48:00;11.00;;;9.75;;
7497;SDS011;3790;48.806;9.140;2023-05-21T05:53:01;14.45;;;9.50;;
7497;SDS011;3790;48.806;9.140;2023-05-21T05:58:02;12.18;;;10.30;;
7497;SDS011;3790;48.806;9.140;2023-05-21T06:03:02;12.55;;;10.43;;
7497;SDS011;3790;48.806;9.140;2023-05-21T06:08:03;12.98;;;9.68;;
7497;SDS011;3790;48.806;9.140;2023-05-21T06:13:03;10.98;;;9.52;;
7497;SDS011;3790;48.806;9.140;2023-05-21T06:18:04;13.50;;;10.10;;
7497;SDS011;3790;48.806;9.140;2023-05-21T06:23:05;13.68;;;10.95;;
7497;SDS011;3790;48.806;9.140;2023-05-21T06:28:07;12.35;;;10.43;;
7497;SDS011;3790;48.806;9.140;2023-05-21T06:33:08;14.65;;;9.77;;
7497;SDS011;3790;48.806;9.140;2023-05-21T06:38:08;11.32;;;10.13;;
7497;SDS011;3790;48.806;9.140;2023-05-21T06:43:09;11.57;;;9.80;;
7497;SDS011;3790;48.806;9.140;2023-05-21T06:48:09;11.40;;;9.27;;
7497;SDS011;3790;48.806;9.140;2023-05-21T06:53:11;12.00;;;9.88;;
7497;SDS011;3790;48.806;9.140;2023-05-21T06:58:15;12.02;;;9.85;;
7497;SDS011;3790;48.806;9.140;2023-05-21T07:03:15;10.05;;;9.05;;
7497;SDS011;3790;48.806;9.140;2023-05-21T07:08:16;11.88;;;9.18;;
7497;SDS011;3790;48.806;9.140;2023-05-21T07:13:18;17.35;;;9.18;;
7497;SDS011;3790;48.806;9.140;2023-05-21T07:18:19;11.90;;;8.88;;
7497;SDS011;3790;48.806;9.140;2023-05-21T07:23:19;11.85;;;9.15;;
7497;SDS011;3790;48.806;9.140;2023-05-21T07:28:20;10.43;;;8.25;;
7497;SDS011;3790;48.806;9.140;2023-05-21T07:33:20;11.77;;;8.05;;
7497;SDS011;3790;48.806;9.140;2023-05-21T07:38:21;11.30;;;8.43;;
7497;SDS011;3790;48.806;9.140;2023-05-21T07:43:22;9.18;;;7.88;;
7497;SDS011;3790;48.806;9.140;2023-05-21T07:48:23;8.52;;;7.72;;
7497;SDS011;3790;48.806;9.140;2023-05-21T07:53:23;13.45;;;7.68;;
7497;SDS011;3790;48.806;9.140;2023-05-21T07:58:24;10.02;;;7.80;;
7497;SDS011;3790;48.806;9.140;2023-05-21T08:03:25;10.70;;;7.93;;
7497;SDS011;3790;48.806;9.140;2023-05-21T08:08:26;9.38;;;7.28;;
7497;SDS011;3790;48.806;9.140;2023-05-21T08:13:27;11.00;;;6.35;;
7497;SDS011;3790;48.806;9.140;2023-05-21T08:18:27;9.20;;;6.13;;
7497;SDS011;3790;48.806;9.140;2023-05-21T08:23:28;8.32;;;6.70;;
7497;SDS011;3790;48.806;9.140;2023-05-21T08:28:31;8.85;;;6.72;;
7497;SDS011;3790;48.806;9.140;2023-05-21T08:33:33;9.35;;;6.07;;
7497;SDS011;3790;48.806;9.140;2023-05-21T08:38:36;12.00;;;6.93;;
7497;SDS011;3790;48.806;9.140;2023-05-21T08:43:37;9.23;;;6.97;;
7497;SDS011;3790;48.806;9.140;2023-05-21T08:48:40;8.32;;;5.88;;
7497;SDS011;3790;48.806;9.140;2023-05-21T08:53:42;7.53;;;6.28;;
7497;SDS011;3790;48.806;9.140;2023-05-21T08:58:45;9.52;;;6.75;;
7497;SDS011;3790;48.806;9.140;2023-05-21T09:03:46;12.38;;;6.72;;
7497;SDS011;3790;48.806;9.140;2023-05-21T09:08:48;9.38;;;6.45;;
7497;SDS011;3790;48.806;9.140;2023-05-21T09:14:03;7.25;;;6.15;;
7497;SDS011;3790;48.806;9.140;2023-05-21T09:19:05;11.68;;;6.30;;
7497;SDS011;3790;48.806;9.140;2023-05-21T09:24:06;10.60;;;6.07;;
7497;SDS011;3790;48.806;9.140;2023-05-21T09:29:09;8.93;;;6.72;;
7497;SDS011;3790;48.806;9.140;2023-05-21T09:34:12;8.93;;;6.32;;
7497;SDS011;3790;48.806;9.140;2023-05-21T09:39:28;7.97;;;5.78;;
7497;SDS011;3790;48.806;9.140;2023-05-21T09:44:28;7.22;;;6.13;;
7497;SDS011;3790;48.806;9.140;2023-05-21T09:49:29;8.10;;;6.32;;
7497;SDS011;3790;48.806;9.140;2023-05-21T09:54:30;8.57;;;5.82;;
7497;SDS011;3790;48.806;9.140;2023-05-21T09:59:36;7.53;;;5.28;;
7497;SDS011;3790;48.806;9.140;2023-05-21T10:04:40;8.38;;;5.55;;
7497;SDS011;3790;48.806;9.140;2023-05-21T10:09:42;10.80;;;5.55;;
7497;SDS011;3790;48.806;9.140;2023-05-21T10:14:45;10.95;;;5.68;;
7497;SDS011;3790;48.806;9.140;2023-05-21T10:20:00;10.07;;;5.53;;
7497;SDS011;3790;48.806;9.140;2023-05-21T10:25:01;7.88;;;5.70;;
7497;SDS011;3790;48.806;9.140;2023-05-21T10:30:04;7.43;;;5.55;;
7497;SDS011;3790;48.806;9.140;2023-05-21T10:35:05;6.90;;;5.47;;
7497;SDS011;3790;48.806;9.140;2023-05-21T10:40:07;8.30;;;5.72;;
7497;SDS011;3790;48.806;9.140;2023-05-21T10:45:15;6.80;;;5.25;;
7497;SDS011;3790;48.806;9.140;2023-05-21T10:50:42;7.53;;;5.00;;
7497;SDS011;3790;48.806;9.140;2023-05-21T11:01:16;5.60;;;4.82;;
7497;SDS011;3790;48.806;9.140;2023-05-21T11:06:21;6.75;;;5.05;;
7497;SDS011;3790;48.806;9.140;2023-05-21T11:11:38;7.22;;;5.00;;
7497;SDS011;3790;48.806;9.140;2023-05-21T11:16:44;6.68;;;4.80;;
7497;SDS011;3790;48.806;9.140;2023-05-21T11:21:50;6.40;;;5.07;;
7497;SDS011;3790;48.806;9.140;2023-05-21T11:32:00;5.47;;;4.47;;
7497;SDS011;3790;48.806;9.140;2023-05-21T11:42:30;5.55;;;4.40;;
7497;SDS011;3790;48.806;9.140;2023-05-21T11:47:32;6.22;;;4.45;;
7497;SDS011;3790;48.806;9.140;2023-05-21T11:52:34;5.20;;;4.22;;
7497;SDS011;3790;48.806;9.140;2023-05-21T11:57:35;6.88;;;4.72;;
7497;SDS011;3790;48.806;9.140;2023-05-21T12:02:36;5.97;;;3.97;;
7497;SDS011;3790;48.806;9.140;2023-05-21T12:07:36;5.90;;;4.15;;
7497;SDS011;3790;48.806;9.140;2023-05-21T12:12:37;6.65;;;4.63;;
7497;SDS011;3790;48.806;9.140;2023-05-21T12:17:38;6.45;;;4.43;;
7497;SDS011;3790;48.806;9.140;2023-05-21T12:22:41;5.57;;;3.85;;
7497;SDS011;3790;48.806;9.140;2023-05-21T12:27:42;5.53;;;4.18;;
7497;SDS011;3790;48.806;9.140;2023-05-21T12:32:43;5.28;;;4.25;;
7497;SDS011;3790;48.806;9.140;2023-05-21T12:37:44;4.85;;;3.90;;
7497;SDS011;3790;48.806;9.140;2023-05-21T12:42:44;5.50;;;3.92;;
7497;SDS011;3790;48.806;9.140;2023-05-21T12:47:48;5.30;;;4.60;;
7497;SDS011;3790;48.806;9.140;2023-05-21T12:52:55;6.50;;;3.95;;
7497;SDS011;3790;48.806;9.140;2023-05-21T12:58:00;6.53;;;4.60;;
7497;SDS011;3790;48.806;9.140;2023-05-21T13:03:03;5.97;;;4.70;;
7497;SDS011;3790;48.806;9.140;2023-05-21T13:08:05;5.18;;;3.42;;
7497;SDS011;3790;48.806;9.140;2023-05-21T13:13:05;6.45;;;4.40;;
7497;SDS011;3790;48.806;9.140;2023-05-21T13:18:06;6.20;;;3.97;;
7497;SDS011;3790;48.806;9.140;2023-05-21T13:23:06;5.05;;;3.65;;
7497;SDS011;3790;48.806;9.140;2023-05-21T13:28:07;5.78;;;3.90;;
7497;SDS011;3790;48.806;9.140;2023-05-21T13:33:09;5.85;;;4.28;;
7497;SDS011;3790;48.806;9.140;2023-05-21T13:38:10;5.32;;;3.70;;
7497;SDS011;3790;48.806;9.140;2023-05-21T13:43:11;6.15;;;3.88;;
7497;SDS011;3790;48.806;9.140;2023-05-21T13:48:11;5.07;;;4.13;;
7497;SDS011;3790;48.806;9.140;2023-05-21T13:53:12;8.10;;;3.85;;
7497;SDS011;3790;48.806;9.140;2023-05-21T13:58:12;4.55;;;3.35;;
7497;SDS011;3790;48.806;9.140;2023-05-21T14:03:13;6.07;;;3.30;;
7497;SDS011;3790;48.806;9.140;2023-05-21T14:08:13;4.68;;;3.55;;
7497;SDS011;3790;48.806;9.140;2023-05-21T14:13:18;5.10;;;3.67;;
7497;SDS011;3790;48.806;9.140;2023-05-21T14:18:19;5.90;;;3.85;;
7497;SDS011;3790;48.806;9.140;2023-05-21T14:23:20;4.72;;;3.60;;
7497;SDS011;3790;48.806;9.140;2023-05-21T14:28:20;8.52;;;3.83;;
7497;SDS011;3790;48.806;9.140;2023-05-21T14:33:21;4.55;;;3.33;;
7497;SDS011;3790;48.806;9.140;2023-05-21T14:38:21;5.07;;;3.53;;
7497;SDS011;3790;48.806;9.140;2023-05-21T14:43:24;5.07;;;3.55;;
7497;SDS011;3790;48.806;9.140;2023-05-21T14:48:25;6.25;;;3.63;;
7497;SDS011;3790;48.806;9.140;2023-05-21T14:53:25;5.10;;;3.03;;
7497;SDS011;3790;48.806;9.140;2023-05-21T14:58:26;4.32;;;2.95;;
7497;SDS011;3790;48.806;9.140;2023-05-21T15:03:26;4.78;;;2.70;;
7497;SDS011;3790;48.806;9.140;2023-05-21T15:08:29;4.35;;;2.55;;
7497;SDS011;3790;48.806;9.140;2023-05-21T15:13:30;5.70;;;2.83;;
7497;SDS011;3790;48.806;9.140;2023-05-21T15:18:31;6.18;;;2.60;;
7497;SDS011;3790;48.806;9.140;2023-05-21T15:23:31;4.55;;;2.38;;
7497;SDS011;3790;48.806;9.140;2023-05-21T15:28:32;3.28;;;2.08;;
7497;SDS011;3790;48.806;9.140;2023-05-21T15:33:32;6.07;;;2.75;;
7497;SDS011;3790;48.806;9.140;2023-05-21T15:38:33;4.10;;;2.55;;
7497;SDS011;3790;48.806;9.140;2023-05-21T15:43:36;4.20;;;2.67;;
7497;SDS011;3790;48.806;9.140;2023-05-21T15:48:40;5.40;;;3.40;;
7497;SDS011;3790;48.806;9.140;2023-05-21T15:53:40;3.53;;;2.65;;
7497;SDS011;3790;48.806;9.140;2023-05-21T15:58:41;5.63;;;3.47;;
7497;SDS011;3790;48.806;9.140;2023-05-21T16:03:44;4.93;;;3.65;;
7497;SDS011;3790;48.806;9.140;2023-05-21T16:08:47;6.13;;;3.83;;
7497;SDS011;3790;48.806;9.140;2023-05-21T16:13:48;6.43;;;3.92;;
7497;SDS011;3790;48.806;9.140;2023-05-21T16:18:48;4.97;;;3.25;;
7497;SDS011;3790;48.806;9.140;2023-05-21T16:23:52;7.32;;;3.80;;
7497;SDS011;3790;48.806;9.140;2023-05-21T16:28:52;5.07;;;4.07;;
7497;SDS011;3790;48.806;9.140;2023-05-21T16:33:53;6.32;;;4.10;;
7497;SDS011;3790;48.806;9.140;2023-05-21T16:38:53;7.55;;;5.43;;
7497;SDS011;3790;48.806;9.140;2023-05-21T16:43:54;7.10;;;3.97;;
7497;SDS011;3790;48.806;9.140;2023-05-21T16:48:54;8.15;;;4.05;;
7497;SDS011;3790;48.806;9.140;2023-05-21T16:53:55;6.45;;;3.85;;
7497;SDS011;3790;48.806;9.140;2023-05-21T16:58:55;5.13;;;3.50;;
7497;SDS011;3790;48.806;9.140;2023-05-21T17:03:56;7.05;;;4.70;;
7497;SDS011;3790;48.806;9.140;2023-05-21T17:08:56;7.25;;;4.45;;
7497;SDS011;3790;48.806;9.140;2023-05-21T17:13:57;5.68;;;4.13;;
7497;SDS011;3790;48.806;9.140;2023-05-21T17:18:58;6.85;;;3.92;;
7497;SDS011;3790;48.806;9.140;2023-05-21T17:23:59;4.88;;;3.58;;
7497;SDS011;3790;48.806;9.140;2023-05-21T17:28:59;4.72;;;3.50;;
7497;SDS011;3790;48.806;9.140;2023-05-21T17:34:00;6.57;;;3.85;;
7497;SDS011;3790;48.806;9.140;2023-05-21T17:39:00;6.18;;;3.80;;
7497;SDS011;3790;48.806;9.140;2023-05-21T17:44:01;4.50;;;3.50;;
7497;SDS011;3790;48.806;9.140;2023-05-21T17:49:01;6.55;;;3.90;;
7497;SDS011;3790;48.806;9.140;2023-05-21T17:54:02;5.30;;;3.60;;
7497;SDS011;3790;48.806;9.140;2023-05-21T17:59:06;5.72;;;3.45;;
7497;SDS011;3790;48.806;9.140;2023-05-21T18:04:08;6.28;;;3.70;;
7497;SDS011;3790;48.806;9.140;2023-05-21T18:09:10;5.43;;;3.83;;
7497;SDS011;3790;48.806;9.140;2023-05-21T18:14:13;5.65;;;4.07;;
7497;SDS011;3790;48.806;9.140;2023-05-21T18:19:13;8.18;;;3.38;;
7497;SDS011;3790;48.806;9.140;2023-05-21T18:24:14;14.15;;;3.60;;
7497;SDS011;3790;48.806;9.140;2023-05-21T18:29:14;4.80;;;3.28;;
7497;SDS011;3790;48.806;9.140;2023-05-21T18:34:15;8.57;;;3.92;;
7497;SDS011;3790;48.806;9.140;2023-05-21T18:39:16;7.55;;;4.10;;
7497;SDS011;3790;48.806;9.140;2023-05-21T18:44:16;7.80;;;4.13;;
7497;SDS011;3790;48.806;9.140;2023-05-21T18:49:17;8.50;;;4.47;;
7497;SDS011;3790;48.806;9.140;2023-05-21T18:54:18;9.00;;;4.45;;
7497;SDS011;3790;48.806;9.140;2023-05-21T18:59:19;8.73;;;3.60;;
7497;SDS011;3790;48.806;9.140;2023-05-21T19:04:19;5.78;;;4.30;;
7497;SDS011;3790;48.806;9.140;2023-05-21T19:09:20;5.20;;;4.00;;
7497;SDS011;3790;48.806;9.140;2023-05-21T19:14:20;5.65;;;4.22;;
7497;SDS011;3790;48.806;9.140;2023-05-21T19:19:21;7.03;;;4.22;;
7497;SDS011;3790;48.806;9.140;2023-05-21T19:24:21;5.72;;;3.72;;
7497;SDS011;3790;48.806;9.140;2023-05-21T19:29:22;11.45;;;4.78;;
7497;SDS011;3790;48.806;9.140;2023-05-21T19:34:23;7.18;;;4.03;;
7497;SDS011;3790;48.806;9.140;2023-05-21T19:39:23;5.63;;;4.65;;
7497;SDS011;3790;48.806;9.140;2023-05-21T19:44:24;5.55;;;3.50;;
7497;SDS011;3790;48.806;9.140;2023-05-21T19:49:25;6.78;;;4.47;;
7497;SDS011;3790;48.806;9.140;2023-05-21T19:54:25;6.43;;;4.13;;
7497;SDS011;3790;48.806;9.140;2023-05-21T19:59:26;5.13;;;3.83;;
7497;SDS011;3790;48.806;9.140;2023-05-21T20:04:27;4.63;;;4.00;;
7497;SDS011;3790;48.806;9.140;2023-05-21T20:09:27;6.53;;;4.50;;
7497;SDS011;3790;48.806;9.140;2023-05-21T20:14:28;7.00;;;4.22;;
7497;SDS011;3790;48.806;9.140;2023-05-21T20:19:28;6.15;;;4.00;;
7497;SDS011;3790;48.806;9.140;2023-05-21T20:24:29;6.68;;;4.57;;
7497;SDS011;3790;48.806;9.140;2023-05-21T20:29:30;6.70;;;4.60;;
7497;SDS011;3790;48.806;9.140;2023-05-21T20:34:30;6.55;;;4.53;;
7497;SDS011;3790;48.806;9.140;2023-05-21T20:39:32;6.55;;;4.75;;
7497;SDS011;3790;48.806;9.140;2023-05-21T20:44:32;5.40;;;4.35;;
7497;SDS011;3790;48.806;9.140;2023-05-21T20:49:33;6.60;;;5.03;;
7497;SDS011;3790;48.806;9.140;2023-05-21T20:54:33;6.55;;;4.05;;
7497;SDS011;3790;48.806;9.140;2023-05-21T20:59:34;6.00;;;4.85;;
7497;SDS011;3790;48.806;9.140;2023-05-21T21:04:34;7.40;;;4.85;;
7497;SDS011;3790;48.806;9.140;2023-05-21T21:09:36;6.85;;;4.80;;
7497;SDS011;3790;48.806;9.140;2023-05-21T21:14:38;5.50;;;4.50;;
7497;SDS011;3790;48.806;9.140;2023-05-21T21:19:39;6.05;;;4.53;;
7497;SDS011;3790;48.806;9.140;2023-05-21T21:24:39;6.55;;;4.50;;
7497;SDS011;3790;48.806;9.140;2023-05-21T21:29:40;6.57;;;4.85;;
7497;SDS011;3790;48.806;9.140;2023-05-21T21:34:41;6.57;;;4.20;;
7497;SDS011;3790;48.806;9.140;2023-05-21T21:39:41;8.70;;;5.05;;
7497;SDS011;3790;48.806;9.140;2023-05-21T21:44:42;6.90;;;4.70;;
7497;SDS011;3790;48.806;9.140;2023-05-21T21:49:42;7.45;;;4.72;;
7497;SDS011;3790;48.806;9.140;2023-05-21T21:54:43;6.53;;;4.63;;
7497;SDS011;3790;48.806;9.140;2023-05-21T21:59:43;7.80;;;5.05;;
7497;SDS011;3790;48.806;9.140;2023-05-21T22:04:44;7.03;;;4.75;;
7497;SDS011;3790;48.806;9.140;2023-05-21T22:09:45;7.65;;;5.28;;
7497;SDS011;3790;48.806;9.140;2023-05-21T22:14:46;7.22;;;4.75;;
7497;SDS011;3790;48.806;9.140;2023-05-21T22:19:46;5.68;;;4.72;;
7497;SDS011;3790;48.806;9.140;2023-05-21T22:24:47;6.63;;;4.38;;
7497;SDS011;3790;48.806;9.140;2023-05-21T22:29:47;5.97;;;4.63;;
7497;SDS011;3790;48.806;9.140;2023-05-21T22:34:48;7.07;;;5.35;;
7497;SDS011;3790;48.806;9.140;2023-05-21T22:39:48;6.85;;;5.10;;
7497;SDS011;3790;48.806;9.140;2023-05-21T22:44:49;5.47;;;4.53;;
7497;SDS011;3790;48.806;9.140;2023-05-21T22:49:50;6.78;;;5.45;;
7497;SDS011;3790;48.806;9.140;2023-05-21T22:54:52;6.53;;;5.18;;
7497;SDS011;3790;48.806;9.140;2023-05-21T22:59:52;6.75;;;5.00;;
7497;SDS011;3790;48.806;9.140;2023-05-21T23:04:53;7.22;;;5.70;;
7497;SDS011;3790;48.806;9.140;2023-05-21T23:09:54;6.45;;;5.10;;
7497;SDS011;3790;48.806;9.140;2023-05-21T23:14:54;6.88;;;5.00;;
7497;SDS011;3790;48.806;9.140;2023-05-21T23:19:55;6.65;;;5.45;;
7497;SDS011;3790;48.806;9.140;2023-05-21T23:24:56;6.45;;;5.45;;
7497;SDS011;3790;48.806;9.140;2023-05-21T23:29:57;8.52;;;5.65;;
7497;SDS011;3790;48.806;9.140;2023-05-21T23:34:57;8.82;;;5.93;;
7497;SDS011;3790;48.806;9.140;2023-05-21T23:39:58;11.13;;;5.95;;
7497;SDS011;3790;48.806;9.140;2023-05-21T23:44:58;6.05;;;5.38;;
7497;SDS011;3790;48.806;9.140;2023-05-21T23:49:59;8.43;;;5.68;;
7497;SDS011;3790;48.806;9.140;2023-05-21T23:54:59;7.35;;;5.03;;
